Estación Meteorológica Peña el Pijo (Robertgarden) [ 05/25/19 23:37:40 CEST ]

Fecha Hora Presion(HPa) Temp (°C) Humedad % Rocio (°C) Viento ( m/s) Direccion Lluvia 1Hora(mm) Lluvia 24H(mm) LLuvia Total(mm)
2019-May-21 01:01:54 1006.200 19.9 68 13.8         318.05
2019-May-21 02:01:56 1005.800 17.4 67 11.2         318.05
2019-May-21 03:01:41 1005.300 18.9 67 12.6         318.05
2019-May-21 04:03:08 1005.300 18.5 66 12.0         318.05
2019-May-21 05:01:48 1005.200 18.5 71 13.1         318.05
2019-May-21 06:01:56 1005.300 19.7 75 15.1         318.05
2019-May-21 07:02:03 1005.400 19.4 77 15.3         318.05
2019-May-21 08:01:47 1005.700 17.3 78 13.4         318.05
2019-May-21 09:01:48 1005.900 16.1 67 10.0         318.05
2019-May-21 10:01:39 1006.500 18.3 57 9.6         318.05
2019-May-21 11:01:42 1006.500 20.9 41 7.1         318.05
2019-May-21 12:01:49 1006.500 22.8 35 6.4         318.05
2019-May-21 13:01:57 1006.600 20.9 37 5.6         318.05
2019-May-21 14:01:37 1006.400 21.1 36 5.3         318.05
2019-May-21 15:01:30 1006.200 23.3 34 6.4 1.3 N     318.05
2019-May-21 16:01:50 1006.100 21.9 35 5.7         318.05
2019-May-21 17:01:42 1006.000 22.1 38 7.1         318.05
2019-May-21 18:01:24 1006.600 17.3 58 8.9         318.05
2019-May-21 19:01:26 1006.700 17.4 60 9.6         318.05
2019-May-21 20:01:47 1006.800 17.6 60 9.7         318.05
2019-May-21 21:01:36 1007.300 17.5 61 9.9         318.05
2019-May-21 22:02:01 1007.900 17.6 65 10.9         318.05
2019-May-21 23:02:05 1008.700 20.8 73 15.8         318.05

Temperatura Máxima:23°    Temperatura Mínima:16°
Presión Máxima:1008.700 Hpa    Presión Mínima:1005.200 Hpa


Volver